Time;durP1;ratioP1;P1;durP2;ratioP2;P2;SDS_P1;SDS_P2;PMS_P1;PMS_P2;Temp;Humidity;BMP_temperature;BMP_pressure;BME280_temperature;BME280_humidity;BME280_pressure;Samples;Min_cycle;Max_cycle;Signal;HPM_P1;HPM_P2
2021/08/09 00:00:58;;;;;;;;;;;;;;;21.37;49.34;101204.66;5053482;27;96775;-76
2021/08/09 00:03:24;;;;;;;;;;;;;;;21.37;49.60;101204.66;5052616;27;98814;-77
2021/08/09 00:05:50;;;;;;;;;;;;;;;21.37;49.39;101209.16;5054646;27;98820;-76
2021/08/09 00:08:18;;;;;;;;;;;;;;;21.26;49.69;101217.16;5054008;27;98705;-77
2021/08/09 00:10:44;;;;;;;;;;;;;;;21.28;49.29;101215.19;5053403;27;96865;-76
2021/08/09 00:13:11;;;;;;;;;;;;;;;21.21;49.49;101216.59;5053330;27;101874;-76
2021/08/09 00:15:38;;;;;;;;;;;;;;;21.19;49.64;101219.44;5055510;27;99138;-76
2021/08/09 00:18:05;;;;;;;;;;;;;;;21.10;49.93;101217.38;5053382;27;96986;-76
2021/08/09 00:20:31;;;;;;;;;;;;;;;21.06;49.87;101210.50;5054126;27;96806;-76
2021/08/09 00:22:57;;;;;;;;;;;;;;;21.18;49.56;101219.53;5065101;27;98181;-76
2021/08/09 00:25:23;;;;;;;;;;;;;;;21.04;49.63;101220.50;5065697;27;97745;-76
2021/08/09 00:27:50;;;;;;;;;;;;;;;20.99;49.84;101218.16;5053982;27;96907;-77
2021/08/09 00:30:16;;;;;;;;;;;;;;;20.93;50.29;101240.06;5052906;27;96835;-76
2021/08/09 00:32:43;;;;;;;;;;;;;;;20.91;50.40;101225.88;5054100;27;98853;-77
2021/08/09 00:35:10;;;;;;;;;;;;;;;20.81;50.49;101227.47;5053732;27;101655;-76
2021/08/09 00:37:36;;;;;;;;;;;;;;;20.89;50.46;101222.44;5053707;27;96928;-76
2021/08/09 00:40:03;;;;;;;;;;;;;;;20.92;50.71;101221.38;5052364;27;96839;-76
2021/08/09 00:42:29;;;;;;;;;;;;;;;20.95;50.71;101219.31;5054099;27;98950;-77
2021/08/09 00:44:55;;;;;;;;;;;;;;;20.94;50.21;101216.72;5052578;27;98838;-77
2021/08/09 00:47:21;;;;;;;;;;;;;;;20.98;50.15;101223.63;5057242;27;96846;-77
2021/08/09 00:49:49;;;;;;;;;;;;;;;21.02;50.24;101227.78;5056708;27;96762;-77
2021/08/09 00:52:17;;;;;;;;;;;;;;;20.94;50.31;101228.34;5056656;27;98764;-77
2021/08/09 00:54:43;;;;;;;;;;;;;;;20.87;50.30;101232.41;5055387;27;99074;-78
2021/08/09 00:57:10;;;;;;;;;;;;;;;20.92;50.12;101224.91;5057466;27;99251;-76
2021/08/09 00:59:36;;;;;;;;;;;;;;;20.85;50.47;101220.94;5056176;27;98647;-77
2021/08/09 01:02:03;;;;;;;;;;;;;;;20.82;50.42;101223.84;5055906;27;98873;-76
2021/08/09 01:04:29;;;;;;;;;;;;;;;20.72;50.22;101230.84;5056502;27;98837;-76
2021/08/09 01:06:56;;;;;;;;;;;;;;;20.87;49.98;101224.34;5057410;27;96666;-76
2021/08/09 01:09:25;;;;;;;;;;;;;;;20.75;50.33;101238.66;5056861;27;96784;-76
2021/08/09 01:11:54;;;;;;;;;;;;;;;20.79;50.35;101240.19;5055564;27;98990;-76
2021/08/09 01:14:27;;;;;;;;;;;;;;;20.70;50.15;101238.13;5055072;27;98809;-76
2021/08/09 01:16:53;;;;;;;;;;;;;;;20.63;50.48;101243.06;5057599;27;97314;-76
2021/08/09 01:19:31;;;;;;;;;;;;;;;20.64;50.64;101230.50;5056886;27;96986;-76
2021/08/09 01:22:02;;;;;;;;;;;;;;;20.75;50.64;101241.34;5040547;27;98846;-76
2021/08/09 01:24:33;;;;;;;;;;;;;;;20.43;50.47;101230.16;5050316;27;99208;-76
2021/08/09 01:27:02;;;;;;;;;;;;;;;20.45;50.75;101238.13;5056119;27;96889;-77
2021/08/09 01:29:32;;;;;;;;;;;;;;;20.52;50.64;101242.09;5056751;27;96824;-76
2021/08/09 01:31:59;;;;;;;;;;;;;;;20.66;50.00;101244.69;5056031;27;99191;-75
2021/08/09 01:34:26;;;;;;;;;;;;;;;20.67;50.17;101251.78;5056651;27;98899;-75
2021/08/09 01:36:53;;;;;;;;;;;;;;;20.58;50.26;101245.22;5056031;27;96842;-76
2021/08/09 01:39:20;;;;;;;;;;;;;;;20.52;50.15;101258.19;5056736;27;96860;-76
2021/08/09 01:41:48;;;;;;;;;;;;;;;20.50;50.15;101254.75;5055352;27;99348;-76
2021/08/09 01:44:15;;;;;;;;;;;;;;;20.45;50.44;101251.53;5056390;27;99220;-75
2021/08/09 01:46:43;;;;;;;;;;;;;;;20.47;50.21;101254.97;5052675;27;96855;-75
2021/08/09 01:49:10;;;;;;;;;;;;;;;20.46;49.96;101256.81;5037196;27;96907;-75
2021/08/09 01:51:36;;;;;;;;;;;;;;;20.41;50.09;101258.09;5037421;27;99232;-76
2021/08/09 01:54:03;;;;;;;;;;;;;;;20.34;50.36;101264.84;5056199;27;98794;-75
2021/08/09 01:56:29;;;;;;;;;;;;;;;20.39;50.04;101268.06;5060652;27;96805;-76
2021/08/09 01:58:56;;;;;;;;;;;;;;;20.40;50.10;101273.34;5061923;27;96860;-75
2021/08/09 02:01:22;;;;;;;;;;;;;;;20.23;50.40;101285.16;5057746;27;99201;-75
2021/08/09 02:03:50;;;;;;;;;;;;;;;20.24;50.40;101278.84;5058374;27;97638;-75
2021/08/09 02:06:16;;;;;;;;;;;;;;;20.34;50.07;101280.94;5056411;27;97680;-75
2021/08/09 02:08:43;;;;;;;;;;;;;;;20.25;50.36;101283.25;5057984;27;96719;-76
2021/08/09 02:11:12;;;;;;;;;;;;;;;19.93;51.08;101284.53;5055741;27;99192;-75
2021/08/09 02:13:40;;;;;;;;;;;;;;;19.84;51.14;101283.31;5055466;27;98837;-76
2021/08/09 02:16:08;;;;;;;;;;;;;;;20.06;50.55;101282.75;5054794;27;96908;-76
2021/08/09 02:18:38;;;;;;;;;;;;;;;20.02;50.77;101285.75;5055178;27;96891;-76
2021/08/09 02:21:07;;;;;;;;;;;;;;;20.17;50.25;101277.53;5053942;27;99264;-76
2021/08/09 02:23:39;;;;;;;;;;;;;;;19.77;51.28;101281.13;5055206;27;98804;-76
2021/08/09 02:26:06;;;;;;;;;;;;;;;20.00;50.70;101285.84;5056332;27;96700;-76
2021/08/09 02:28:34;;;;;;;;;;;;;;;19.90;50.80;101293.63;5055409;27;97862;-76
2021/08/09 02:31:03;;;;;;;;;;;;;;;20.08;50.56;101290.72;5056999;27;99283;-76
2021/08/09 02:33:30;;;;;;;;;;;;;;;19.90;51.04;101299.00;5056317;27;99296;-76
2021/08/09 02:35:57;;;;;;;;;;;;;;;19.42;52.56;101297.63;5057054;27;96775;-76
2021/08/09 02:38:26;;;;;;;;;;;;;;;19.59;51.92;101301.94;5055338;27;97261;-76
2021/08/09 02:40:53;;;;;;;;;;;;;;;19.74;51.52;101300.09;5054816;27;99301;-76
2021/08/09 02:43:20;;;;;;;;;;;;;;;19.75;51.41;101299.16;5055359;27;98858;-76
2021/08/09 02:45:48;;;;;;;;;;;;;;;19.99;51.19;101300.22;5057188;27;96979;-76
2021/08/09 02:48:15;;;;;;;;;;;;;;;20.05;50.52;101297.13;5056253;27;97265;-76
2021/08/09 02:50:41;;;;;;;;;;;;;;;19.87;51.09;101304.56;5055851;27;100757;-76
2021/08/09 02:53:07;;;;;;;;;;;;;;;19.94;51.39;101314.88;5053709;27;98028;-76
2021/08/09 02:55:35;;;;;;;;;;;;;;;20.07;51.13;101316.66;5055220;27;97306;-76
2021/08/09 02:58:07;;;;;;;;;;;;;;;19.92;51.25;101320.34;5055142;27;96783;-76
2021/08/09 03:00:33;;;;;;;;;;;;;;;19.96;50.66;101318.31;5054659;27;98806;-76
2021/08/09 03:03:00;;;;;;;;;;;;;;;19.92;50.78;101323.03;5053424;27;98803;-76
2021/08/09 03:05:26;;;;;;;;;;;;;;;19.77;51.37;101324.00;5054935;27;96811;-76
2021/08/09 03:07:53;;;;;;;;;;;;;;;19.74;51.31;101326.91;5054456;27;96892;-75
2021/08/09 03:10:19;;;;;;;;;;;;;;;19.84;51.33;101315.47;5054591;27;98874;-75
2021/08/09 03:12:55;;;;;;;;;;;;;;;19.77;51.49;101321.34;5053440;27;98705;-76
2021/08/09 03:15:21;;;;;;;;;;;;;;;19.85;50.96;101327.94;5055839;27;96805;-77
2021/08/09 03:17:48;;;;;;;;;;;;;;;19.79;51.26;101335.50;5054464;27;96978;-76
2021/08/09 03:20:14;;;;;;;;;;;;;;;19.59;51.75;101325.19;5054564;27;98956;-76
2021/08/09 03:22:40;;;;;;;;;;;;;;;19.67;51.56;101328.25;5053212;27;98769;-76
2021/08/09 03:25:07;;;;;;;;;;;;;;;19.47;51.90;101326.84;5054323;27;96669;-76
2021/08/09 03:27:34;;;;;;;;;;;;;;;19.68;51.46;101335.34;5055313;27;96814;-76
2021/08/09 03:30:01;;;;;;;;;;;;;;;19.60;51.95;101333.16;5052556;27;99000;-76
2021/08/09 03:32:27;;;;;;;;;;;;;;;19.62;51.70;101336.63;5053937;27;99347;-77
2021/08/09 03:34:54;;;;;;;;;;;;;;;19.39;52.23;101338.03;5055100;27;96664;-76
2021/08/09 03:37:20;;;;;;;;;;;;;;;19.46;52.24;101334.03;5054590;27;96874;-76
2021/08/09 03:39:46;;;;;;;;;;;;;;;19.47;51.93;101334.91;5054259;27;97978;-76
2021/08/09 03:42:12;;;;;;;;;;;;;;;19.37;52.20;101337.25;5053293;27;99368;-76
2021/08/09 03:44:39;;;;;;;;;;;;;;;19.05;53.10;101331.22;5054701;27;96689;-76
2021/08/09 03:47:06;;;;;;;;;;;;;;;19.36;52.54;101332.00;5054813;27;96796;-76
2021/08/09 03:49:32;;;;;;;;;;;;;;;19.36;52.75;101340.88;5054191;27;98896;-77
2021/08/09 03:51:59;;;;;;;;;;;;;;;19.53;52.15;101336.31;5053661;27;99369;-76
2021/08/09 03:54:25;;;;;;;;;;;;;;;19.40;52.85;101337.06;5054321;27;96820;-76
2021/08/09 03:56:51;;;;;;;;;;;;;;;19.49;52.04;101339.19;5053263;27;98961;-76
2021/08/09 03:59:17;;;;;;;;;;;;;;;19.69;51.56;101337.09;5053993;27;99550;-76
2021/08/09 04:01:47;;;;;;;;;;;;;;;19.71;51.52;101330.63;5053079;27;98984;-76
2021/08/09 04:04:15;;;;;;;;;;;;;;;19.26;53.10;101336.19;5053991;27;96694;-76
2021/08/09 04:06:41;;;;;;;;;;;;;;;19.43;52.64;101331.50;5050451;27;96868;-76
2021/08/09 04:09:07;;;;;;;;;;;;;;;19.65;51.87;101330.16;5054384;27;98986;-76
2021/08/09 04:11:34;;;;;;;;;;;;;;;19.28;52.64;101328.94;5053305;27;98781;-76
2021/08/09 04:14:01;;;;;;;;;;;;;;;19.36;52.58;101332.84;5055002;27;96716;-76
2021/08/09 04:16:28;;;;;;;;;;;;;;;19.60;52.08;101327.78;5053842;27;96886;-76
2021/08/09 04:18:54;;;;;;;;;;;;;;;19.46;52.66;101335.84;5052632;27;99114;-76
2021/08/09 04:21:22;;;;;;;;;;;;;;;19.31;52.28;101326.03;5051983;27;98788;-75
2021/08/09 04:23:49;;;;;;;;;;;;;;;19.39;52.34;101329.97;5053403;27;96914;-76
2021/08/09 04:26:16;;;;;;;;;;;;;;;19.74;51.48;101343.00;5054470;27;96869;-77
2021/08/09 04:28:42;;;;;;;;;;;;;;;19.71;51.22;101337.81;5054280;27;98879;-76
2021/08/09 04:31:08;;;;;;;;;;;;;;;19.87;51.00;101342.13;5052782;27;98833;-76
2021/08/09 04:33:40;;;;;;;;;;;;;;;20.06;50.88;101346.28;5053315;27;96834;-76
2021/08/09 04:36:06;;;;;;;;;;;;;;;20.12;50.71;101348.56;5054095;27;96787;-76
2021/08/09 04:38:34;;;;;;;;;;;;;;;20.14;50.56;101341.28;5053776;27;99319;-76
2021/08/09 04:41:00;;;;;;;;;;;;;;;19.94;51.15;101339.91;5052862;27;98868;-76
2021/08/09 04:43:26;;;;;;;;;;;;;;;20.00;50.52;101338.63;5042644;27;96757;-77
2021/08/09 04:45:52;;;;;;;;;;;;;;;20.08;50.32;101331.81;5045148;27;97306;-77
2021/08/09 04:48:18;;;;;;;;;;;;;;;19.93;50.33;101340.84;5053896;27;98853;-76
2021/08/09 04:50:45;;;;;;;;;;;;;;;20.17;50.41;101333.88;5052675;27;99466;-76
2021/08/09 04:53:11;;;;;;;;;;;;;;;20.39;49.90;101343.22;5053934;27;96744;-76
2021/08/09 04:55:38;;;;;;;;;;;;;;;20.33;49.85;101346.31;5052752;27;96793;-78
2021/08/09 04:58:05;;;;;;;;;;;;;;;20.19;50.11;101353.41;5052014;27;98889;-76
2021/08/09 05:00:31;;;;;;;;;;;;;;;20.60;49.15;101341.78;5051816;27;98969;-76
2021/08/09 05:02:57;;;;;;;;;;;;;;;20.79;48.51;101342.25;5054270;27;96762;-76
2021/08/09 05:05:24;;;;;;;;;;;;;;;20.78;48.48;101345.88;5053666;27;96802;-76
2021/08/09 05:07:53;;;;;;;;;;;;;;;20.87;48.37;101345.22;5053055;27;99323;-76
2021/08/09 05:10:19;;;;;;;;;;;;;;;20.71;48.69;101338.34;5052342;27;98874;-75
2021/08/09 05:12:47;;;;;;;;;;;;;;;20.87;48.21;101347.91;5053945;27;96843;-76
2021/08/09 05:15:13;;;;;;;;;;;;;;;20.82;47.99;101349.19;5053019;27;96908;-76
2021/08/09 05:17:39;;;;;;;;;;;;;;;21.04;47.56;101344.94;5053539;27;97589;-75
2021/08/09 05:20:06;;;;;;;;;;;;;;;20.95;47.89;101350.94;5052186;27;98712;-78
2021/08/09 05:22:33;;;;;;;;;;;;;;;21.15;47.32;101346.00;5053322;27;96896;-75
2021/08/09 05:24:59;;;;;;;;;;;;;;;21.15;47.61;101354.94;5053301;27;96833;-76
2021/08/09 05:27:25;;;;;;;;;;;;;;;21.22;47.33;101355.38;5053330;27;99325;-76
2021/08/09 05:29:53;;;;;;;;;;;;;;;21.43;47.01;101352.06;5051357;27;98831;-76
2021/08/09 05:32:19;;;;;;;;;;;;;;;21.22;47.21;101358.94;5053456;27;96724;-75
2021/08/09 05:34:46;;;;;;;;;;;;;;;21.37;46.75;101359.69;5055619;27;96887;-77
2021/08/09 05:37:13;;;;;;;;;;;;;;;21.58;46.38;101360.88;5056751;27;98929;-75
2021/08/09 05:39:39;;;;;;;;;;;;;;;22.69;43.49;101359.81;5055826;27;99344;-75
2021/08/09 05:42:06;;;;;;;;;;;;;;;24.10;40.26;101370.97;5045339;27;96752;-75
2021/08/09 05:44:32;;;;;;;;;;;;;;;23.75;40.62;101365.78;5042073;27;98631;-75
2021/08/09 05:46:59;;;;;;;;;;;;;;;23.16;42.08;101370.50;5056999;27;98845;-77
2021/08/09 05:49:26;;;;;;;;;;;;;;;22.36;43.90;101376.69;5056213;27;98915;-75
2021/08/09 05:51:52;;;;;;;;;;;;;;;22.44;43.88;101380.53;5057458;27;96897;-77
2021/08/09 05:54:18;;;;;;;;;;;;;;;22.28;44.08;101382.63;5057943;27;96837;-76
2021/08/09 05:56:44;;;;;;;;;;;;;;;22.32;44.44;101385.97;5060829;27;98978;-76
2021/08/09 05:59:11;;;;;;;;;;;;;;;22.28;44.16;101388.03;5060323;27;98027;-76
2021/08/09 06:01:37;;;;;;;;;;;;;;;22.22;44.53;101383.97;5055201;27;97582;-78
2021/08/09 06:04:05;;;;;;;;;;;;;;;22.07;44.99;101387.78;5060275;27;96805;-79
2021/08/09 06:06:31;;;;;;;;;;;;;;;22.17;44.93;101396.03;5057337;27;99218;-78
2021/08/09 06:08:57;;;;;;;;;;;;;;;21.86;45.49;101392.84;5057240;27;99203;-79
2021/08/09 06:11:23;;;;;;;;;;;;;;;22.15;45.11;101389.91;5055217;27;96826;-77
2021/08/09 06:13:50;;;;;;;;;;;;;;;22.65;44.37;101383.41;5057169;27;96817;-78
2021/08/09 06:16:16;;;;;;;;;;;;;;;22.80;43.37;101393.06;5056747;27;99045;-75
2021/08/09 06:18:42;;;;;;;;;;;;;;;22.59;43.83;101390.13;5049285;27;99370;-76
2021/08/09 06:21:11;;;;;;;;;;;;;;;22.78;43.45;101396.84;5047449;27;97294;-78
2021/08/09 06:23:37;;;;;;;;;;;;;;;22.92;43.00;101402.03;5051106;27;96838;-77
2021/08/09 06:26:03;;;;;;;;;;;;;;;22.86;43.41;101414.16;5055770;27;99442;-75
2021/08/09 06:28:30;;;;;;;;;;;;;;;22.72;43.73;101410.75;5054508;27;98791;-76
2021/08/09 06:30:56;;;;;;;;;;;;;;;22.78;43.49;101413.00;5051402;27;96794;-75
2021/08/09 06:33:22;;;;;;;;;;;;;;;22.66;43.87;101407.56;5057130;27;97007;-76
2021/08/09 06:35:52;;;;;;;;;;;;;;;22.31;44.69;101412.03;5051349;27;98909;-76
2021/08/09 06:38:20;;;;;;;;;;;;;;;22.52;44.39;101420.34;5052120;27;99543;-76
2021/08/09 06:40:46;;;;;;;;;;;;;;;22.77;44.07;101414.00;5049610;27;97358;-75
2021/08/09 06:43:13;;;;;;;;;;;;;;;22.65;44.27;101408.53;5049351;27;97321;-75
2021/08/09 06:45:49;;;;;;;;;;;;;;;22.90;43.59;101409.41;5047397;27;98858;-74
2021/08/09 06:48:16;;;;;;;;;;;;;;;23.32;42.89;101413.28;5048669;27;98844;-76
2021/08/09 06:50:43;;;;;;;;;;;;;;;23.66;42.32;101408.81;5045256;27;96862;-76
2021/08/09 06:53:09;;;;;;;;;;;;;;;23.64;42.02;101408.06;5049388;27;97063;-76
2021/08/09 06:55:37;;;;;;;;;;;;;;;23.53;42.37;101408.94;5048881;27;97694;-76
2021/08/09 06:58:04;;;;;;;;;;;;;;;23.40;42.54;101400.94;5050880;27;98883;-76
2021/08/09 07:00:30;;;;;;;;;;;;;;;23.42;42.57;101414.31;5053089;27;96868;-77
2021/08/09 07:02:57;;;;;;;;;;;;;;;23.51;42.49;101418.13;5052540;27;97015;-77
2021/08/09 07:05:23;;;;;;;;;;;;;;;23.55;42.31;101422.31;5053299;27;99057;-76
2021/08/09 07:07:50;;;;;;;;;;;;;;;23.47;42.64;101420.22;5052374;27;98823;-75
2021/08/09 07:10:16;;;;;;;;;;;;;;;23.45;42.62;101416.75;5046951;27;97190;-77
2021/08/09 07:12:44;;;;;;;;;;;;;;;23.44;42.60;101423.97;5046314;27;97119;-76
2021/08/09 07:15:11;;;;;;;;;;;;;;;23.31;43.29;101415.13;5050559;27;99224;-76
2021/08/09 07:17:41;;;;;;;;;;;;;;;23.55;42.80;101422.31;5055083;27;98879;-78
2021/08/09 07:20:08;;;;;;;;;;;;;;;23.59;42.79;101423.78;5051508;27;96762;-77
2021/08/09 07:22:34;;;;;;;;;;;;;;;23.65;42.57;101423.28;5052447;27;97004;-78
2021/08/09 07:25:01;;;;;;;;;;;;;;;23.84;42.40;101423.53;5050589;27;98167;-80
2021/08/09 07:27:27;;;;;;;;;;;;;;;23.94;42.00;101421.81;5049730;27;97891;-77
2021/08/09 07:29:55;;;;;;;;;;;;;;;24.98;40.34;101428.47;5042641;27;97641;-79
2021/08/09 07:32:21;;;;;;;;;;;;;;;24.49;40.71;101430.81;5050259;27;96897;-76
2021/08/09 07:34:48;;;;;;;;;;;;;;;24.43;40.36;101423.22;5048600;27;101121;-77
2021/08/09 07:37:17;;;;;;;;;;;;;;;24.35;40.94;101423.84;5050620;27;98286;-75
2021/08/09 07:39:43;;;;;;;;;;;;;;;24.49;40.65;101420.00;5051114;27;98123;-76
2021/08/09 07:42:09;;;;;;;;;;;;;;;24.72;40.25;101416.25;5047938;27;97325;-78
2021/08/09 07:44:36;;;;;;;;;;;;;;;25.12;39.27;101419.16;5053860;27;99291;-78
2021/08/09 07:47:04;;;;;;;;;;;;;;;24.78;39.32;101415.75;5051056;27;99098;-77
2021/08/09 07:49:31;;;;;;;;;;;;;;;24.94;39.88;101416.16;5051022;27;97317;-75
2021/08/09 07:51:57;;;;;;;;;;;;;;;24.85;39.55;101418.78;5053909;27;97004;-75
2021/08/09 07:54:25;;;;;;;;;;;;;;;24.91;39.38;101413.75;5050850;27;97876;-76
2021/08/09 07:56:51;;;;;;;;;;;;;;;24.85;39.32;101410.66;5053613;27;99298;-77
2021/08/09 07:59:19;;;;;;;;;;;;;;;24.71;39.84;101409.13;5049150;27;97602;-75
2021/08/09 08:01:46;;;;;;;;;;;;;;;24.64;40.33;101416.03;5048899;27;96855;-76
2021/08/09 08:04:13;;;;;;;;;;;;;;;24.51;40.74;101421.63;5039180;27;98918;-75
2021/08/09 08:06:40;;;;;;;;;;;;;;;24.72;40.87;101416.25;5050388;27;98797;-75
2021/08/09 08:09:07;;;;;;;;;;;;;;;24.40;40.89;101415.41;5043688;27;96876;-75
2021/08/09 08:11:33;;;;;;;;;;;;;;;23.77;42.30;101412.38;5053964;27;97111;-76
2021/08/09 08:13:59;;;;;;;;;;;;;;;23.71;42.40;101420.09;5052379;27;98825;-76
2021/08/09 08:16:25;;;;;;;;;;;;;;;23.49;42.73;101422.81;5044288;27;100474;-76
2021/08/09 08:18:52;;;;;;;;;;;;;;;23.61;42.75;101428.09;5049887;27;96793;-76
2021/08/09 08:21:19;;;;;;;;;;;;;;;24.11;42.25;101429.41;5045269;27;97238;-74
2021/08/09 08:23:46;;;;;;;;;;;;;;;24.27;41.63;101423.66;5041264;27;98918;-75
2021/08/09 08:26:12;;;;;;;;;;;;;;;24.39;41.29;101425.34;5048760;27;97496;-75
2021/08/09 08:28:42;;;;;;;;;;;;;;;24.31;41.73;101421.53;5056117;27;97238;-74
2021/08/09 08:31:08;;;;;;;;;;;;;;;24.47;41.29;101425.56;5050690;27;96901;-75
2021/08/09 08:33:34;;;;;;;;;;;;;;;24.56;41.44;101432.03;5037616;27;97941;-76
2021/08/09 08:36:01;;;;;;;;;;;;;;;24.64;41.27;101437.66;5053534;27;99316;-76
2021/08/09 08:38:28;;;;;;;;;;;;;;;24.70;41.36;101438.97;5052661;27;96987;-77
2021/08/09 08:40:54;;;;;;;;;;;;;;;24.44;40.90;101443.84;5044671;27;97384;-75
2021/08/09 08:43:21;;;;;;;;;;;;;;;24.77;40.75;101451.84;5051849;27;99035;-75
2021/08/09 08:45:48;;;;;;;;;;;;;;;24.81;40.47;101458.72;5047121;27;98785;-75
2021/08/09 08:48:15;;;;;;;;;;;;;;;24.98;40.06;101458.19;5049644;27;98341;-74
2021/08/09 08:50:42;;;;;;;;;;;;;;;24.95;40.37;101449.47;5057701;27;97294;-75
2021/08/09 08:53:08;;;;;;;;;;;;;;;24.62;40.58;101453.13;5050094;27;100423;-74
2021/08/09 08:55:36;;;;;;;;;;;;;;;24.97;40.32;101451.06;5049465;27;99295;-75
2021/08/09 08:58:03;;;;;;;;;;;;;;;25.19;39.56;101457.34;5054197;27;96709;-75
2021/08/09 09:00:35;;;;;;;;;;;;;;;24.88;40.47;101459.91;5055086;27;96979;-77
2021/08/09 09:03:04;;;;;;;;;;;;;;;25.01;39.70;101447.09;5056318;27;99127;-76
2021/08/09 09:05:33;;;;;;;;;;;;;;;25.05;39.75;101455.81;5053011;27;98949;-76
2021/08/09 09:08:00;;;;;;;;;;;;;;;24.65;40.85;101450.19;5049514;27;96901;-75
2021/08/09 09:10:28;;;;;;;;;;;;;;;24.89;39.89;101456.25;5063324;27;97298;-75
2021/08/09 09:13:10;;;;;;;;;;;;;;;25.33;39.48;101455.19;5055821;27;99196;-75
2021/08/09 09:15:55;;;;;;;;;;;;;;;25.69;38.84;101445.72;5059032;27;99109;-77
2021/08/09 09:18:26;;;;;;;;;;;;;;;25.76;38.28;101448.75;5058926;27;96945;-75
2021/08/09 09:20:54;;;;;;;;;;;;;;;25.69;38.63;101445.72;5062096;27;96640;-75
2021/08/09 09:23:22;;;;;;;;;;;;;;;25.66;38.26;101451.44;5074882;27;97686;-75
2021/08/09 09:25:55;;;;;;;;;;;;;;;25.71;37.74;101451.88;5063820;27;97573;-75
2021/08/09 09:28:24;;;;;;;;;;;;;;;25.79;37.82;101462.03;5056757;27;98854;-75
2021/08/09 09:30:50;;;;;;;;;;;;;;;25.83;38.36;101470.72;5055008;27;96899;-74
2021/08/09 09:33:17;;;;;;;;;;;;;;;25.78;38.48;101472.00;5053247;27;99197;-76
2021/08/09 09:35:43;;;;;;;;;;;;;;;25.49;38.70;101476.34;5054523;27;99432;-76
2021/08/09 09:38:09;;;;;;;;;;;;;;;26.17;37.91;101473.03;5055494;27;97058;-77
2021/08/09 09:40:38;;;;;;;;;;;;;;;26.10;37.88;101479.13;5046191;27;99426;-75
2021/08/09 09:43:14;;;;;;;;;;;;;;;25.87;39.17;101474.88;5057122;27;98960;-76
2021/08/09 09:45:49;;;;;;;;;;;;;;;26.14;38.56;101473.28;5048128;27;99211;-75
2021/08/09 09:48:15;;;;;;;;;;;;;;;26.32;37.88;101468.09;5056883;27;96961;-75
2021/08/09 09:50:42;;;;;;;;;;;;;;;25.66;38.90;101469.50;5053947;27;97017;-76
2021/08/09 09:53:16;;;;;;;;;;;;;;;25.44;39.06;101466.91;5057413;27;99319;-76
2021/08/09 09:55:44;;;;;;;;;;;;;;;25.42;38.87;101462.50;5055915;27;98089;-75
2021/08/09 09:58:10;;;;;;;;;;;;;;;25.61;38.72;101453.66;5050997;27;96831;-75
2021/08/09 10:00:37;;;;;;;;;;;;;;;25.80;38.98;101452.91;5059475;27;97102;-76
2021/08/09 10:03:05;;;;;;;;;;;;;;;26.20;37.89;101448.34;5053369;27;98890;-76
2021/08/09 10:05:33;;;;;;;;;;;;;;;26.46;36.95;101443.31;5060846;27;98815;-76
2021/08/09 10:08:02;;;;;;;;;;;;;;;26.70;36.07;101448.34;5060150;27;96942;-77
2021/08/09 10:10:29;;;;;;;;;;;;;;;26.08;37.54;101454.88;5052560;27;97762;-78
2021/08/09 10:12:55;;;;;;;;;;;;;;;26.23;36.67;101449.06;5052645;27;98898;-76
2021/08/09 10:15:22;;;;;;;;;;;;;;;26.14;36.66;101459.72;5057862;27;98831;-76
2021/08/09 10:17:50;;;;;;;;;;;;;;;26.20;36.48;101459.19;5058512;27;96919;-76
2021/08/09 10:20:19;;;;;;;;;;;;;;;25.76;38.06;101463.16;5062693;27;96937;-75
2021/08/09 10:22:54;;;;;;;;;;;;;;;26.51;35.85;101465.44;5052875;27;98939;-76
2021/08/09 10:25:42;;;;;;;;;;;;;;;26.70;36.07;101464.59;5047078;27;98874;-76
2021/08/09 10:28:08;;;;;;;;;;;;;;;26.64;36.03;101459.75;5057080;27;97375;-76
2021/08/09 10:30:35;;;;;;;;;;;;;;;26.48;36.60;101456.72;5059352;27;96875;-76
2021/08/09 10:33:05;;;;;;;;;;;;;;;26.28;36.58;101453.13;5059150;27;100372;-76
2021/08/09 10:36:02;;;;;;;;;;;;;;;26.30;35.98;101445.72;5056090;27;99005;-76
2021/08/09 10:38:45;;;;;;;;;;;;;;;26.50;34.21;101443.91;5054572;27;97266;-78
2021/08/09 10:41:30;;;;;;;;;;;;;;;26.49;36.25;101444.88;5057568;27;97388;-76
2021/08/09 10:44:16;;;;;;;;;;;;;;;26.79;35.70;101446.63;5059750;27;97817;-75
2021/08/09 10:46:43;;;;;;;;;;;;;;;26.75;33.66;101445.19;5054748;27;99189;-76
2021/08/09 10:49:10;;;;;;;;;;;;;;;27.05;33.50;101445.06;5057459;27;97230;-77
2021/08/09 10:51:51;;;;;;;;;;;;;;;27.10;33.29;101448.25;5058151;27;96859;-76
2021/08/09 10:54:28;;;;;;;;;;;;;;;27.55;31.67;101439.47;5049453;27;99271;-77
2021/08/09 10:56:55;;;;;;;;;;;;;;;27.32;30.96;101442.47;5045427;27;98904;-77
2021/08/09 10:59:44;;;;;;;;;;;;;;;27.10;31.32;101441.94;5057710;27;96937;-76
2021/08/09 11:02:20;;;;;;;;;;;;;;;27.16;31.63;101425.09;5052670;27;96788;-77
2021/08/09 11:05:01;;;;;;;;;;;;;;;27.10;31.40;101433.81;5069296;27;97766;-76
2021/08/09 11:07:27;;;;;;;;;;;;;;;27.70;30.84;101432.53;5060483;27;97799;-76
2021/08/09 11:09:55;;;;;;;;;;;;;;;28.02;30.90;101440.28;5052141;27;96790;-77
2021/08/09 11:12:22;;;;;;;;;;;;;;;28.20;29.56;101437.63;5054600;27;97088;-76
2021/08/09 11:15:07;;;;;;;;;;;;;;;28.42;29.00;101439.94;5056812;27;97990;-77
2021/08/09 11:17:44;;;;;;;;;;;;;;;28.37;29.16;101431.38;5046514;27;99166;-74
2021/08/09 11:20:12;;;;;;;;;;;;;;;28.41;29.31;101438.22;5049571;27;96834;-76
2021/08/09 11:22:38;;;;;;;;;;;;;;;27.85;29.99;101436.47;5050271;27;96887;-77
2021/08/09 11:25:23;;;;;;;;;;;;;;;27.23;31.35;101434.38;5053801;27;99296;-77
2021/08/09 11:27:59;;;;;;;;;;;;;;;27.83;30.12;101427.63;5049943;27;98906;-75
2021/08/09 11:30:31;;;;;;;;;;;;;;;28.45;29.41;101435.03;5048107;27;98195;-76
2021/08/09 11:32:58;;;;;;;;;;;;;;;28.70;28.61;101435.28;5052039;27;96949;-76
2021/08/09 11:35:24;;;;;;;;;;;;;;;28.69;28.77;101431.72;5052391;27;98931;-76
2021/08/09 11:37:54;;;;;;;;;;;;;;;28.82;29.15;101431.34;5047098;27;97189;-77
2021/08/09 11:40:34;;;;;;;;;;;;;;;28.78;28.87;101438.97;5049648;27;96862;-76
2021/08/09 11:43:01;;;;;;;;;;;;;;;29.02;28.35;101422.00;5045058;27;97409;-76
2021/08/09 11:45:28;;;;;;;;;;;;;;;28.67;29.34;101424.72;5043157;27;98990;-75
2021/08/09 11:47:55;;;;;;;;;;;;;;;28.91;30.17;101435.88;5050361;27;99149;-76
2021/08/09 11:50:22;;;;;;;;;;;;;;;29.33;28.73;101438.78;5050456;27;97865;-75
2021/08/09 11:52:48;;;;;;;;;;;;;;;29.59;28.71;101428.75;5047687;27;97955;-76
2021/08/09 11:55:19;;;;;;;;;;;;;;;29.69;28.16;101431.34;5051323;27;98851;-76
2021/08/09 11:57:47;;;;;;;;;;;;;;;29.49;28.19;101430.72;5048152;27;99077;-75
2021/08/09 12:00:15;;;;;;;;;;;;;;;29.18;28.14;101427.59;5051499;27;108566;-74
2021/08/09 12:03:00;;;;;;;;;;;;;;;29.63;27.91;101424.69;5045737;27;98904;-77
2021/08/09 12:05:26;;;;;;;;;;;;;;;29.83;27.98;101419.84;5045552;27;99483;-76
2021/08/09 12:07:57;;;;;;;;;;;;;;;29.83;28.07;101428.03;5051899;27;99034;-76
2021/08/09 12:10:24;;;;;;;;;;;;;;;29.08;28.16;101431.44;5050204;27;97068;-75
2021/08/09 12:12:52;;;;;;;;;;;;;;;29.35;28.46;101423.13;5051315;27;96995;-75
2021/08/09 12:15:19;;;;;;;;;;;;;;;29.47;28.44;101421.84;5050009;27;97695;-76
2021/08/09 12:18:01;;;;;;;;;;;;;;;29.52;28.35;101418.66;5052872;27;99382;-75
2021/08/09 12:20:27;;;;;;;;;;;;;;;29.46;28.28;101417.44;5044916;27;97419;-74
2021/08/09 12:22:54;;;;;;;;;;;;;;;28.96;28.82;101416.34;5051147;27;97058;-75
2021/08/09 12:25:22;;;;;;;;;;;;;;;29.11;28.65;101420.22;5050103;27;99007;-76
2021/08/09 12:27:58;;;;;;;;;;;;;;;29.45;27.96;101418.47;5049614;27;99190;-75
2021/08/09 12:30:26;;;;;;;;;;;;;;;29.44;28.86;101419.47;5051624;27;98560;-75
2021/08/09 12:33:07;;;;;;;;;;;;;;;29.70;28.23;101414.00;5046553;27;97597;-75
2021/08/09 12:35:34;;;;;;;;;;;;;;;29.82;28.23;101418.16;5048939;27;98949;-76
2021/08/09 12:38:00;;;;;;;;;;;;;;;28.95;28.23;101422.81;5049352;27;99069;-74
2021/08/09 12:40:27;;;;;;;;;;;;;;;28.40;28.78;101422.94;5048489;27;96966;-76